Time;durP1;ratioP1;P1;durP2;ratioP2;P2;SDS_P1;SDS_P2;PMS_P1;PMS_P2;Temp;Humidity;BMP_temperature;BMP_pressure;BME280_temperature;BME280_humidity;BME280_pressure;Samples;Min_cycle;Max_cycle;Signal;HPM_P1;HPM_P2
2021/12/02 00:00:05;;;;;;;8.38;4.35;;;;;;;5.27;81.61;97882.50;4995864;28;20050;-73
2021/12/02 00:02:31;;;;;;;7.50;4.32;;;;;;;5.26;82.08;97878.19;5005393;28;20129;-74
2021/12/02 00:04:56;;;;;;;8.68;4.43;;;;;;;5.24;82.61;97877.47;4990887;28;20093;-73
2021/12/02 00:07:21;;;;;;;7.63;4.22;;;;;;;5.24;82.20;97880.06;4990731;28;20042;-72
2021/12/02 00:09:47;;;;;;;6.50;4.82;;;;;;;5.23;82.40;97894.03;4989964;28;20037;-74
2021/12/02 00:12:12;;;;;;;6.80;4.45;;;;;;;5.22;82.12;97889.75;4990415;28;20039;-73
2021/12/02 00:14:44;;;;;;;11.90;4.63;;;;;;;5.20;82.08;97891.63;4992220;28;20069;-73
2021/12/02 00:17:22;;;;;;;7.63;4.07;;;;;;;5.19;82.18;97886.47;5000940;28;20470;-74
2021/12/02 00:22:34;;;;;;;10.95;4.07;;;;;;;5.21;82.60;97895.06;4998230;28;20151;-72
2021/12/02 00:25:03;;;;;;;5.78;4.13;;;;;;;5.19;82.32;97897.75;4995160;28;20031;-74
2021/12/02 00:27:29;;;;;;;6.28;4.28;;;;;;;5.15;81.77;97902.34;5006734;28;20483;-74
2021/12/02 00:29:58;;;;;;;9.63;4.10;;;;;;;5.15;82.05;97904.09;5002498;28;20034;-73
2021/12/02 00:32:28;;;;;;;7.03;3.55;;;;;;;5.15;82.51;97899.72;4998746;28;20046;-74
2021/12/02 00:34:55;;;;;;;6.03;4.22;;;;;;;5.16;82.82;97895.31;5008728;28;20111;-74
2021/12/02 00:37:21;;;;;;;4.55;3.20;;;;;;;5.18;82.62;97890.03;4997501;28;20040;-73
2021/12/02 00:39:48;;;;;;;7.72;4.25;;;;;;;5.15;82.58;97893.66;5010620;28;20029;-73
2021/12/02 00:42:14;;;;;;;7.75;4.47;;;;;;;5.13;82.43;97900.75;4997719;28;20490;-74
2021/12/02 00:44:39;;;;;;;5.90;3.30;;;;;;;5.11;82.39;97903.44;5006774;28;20033;-74
2021/12/02 00:47:05;;;;;;;5.32;3.70;;;;;;;5.11;82.48;97902.59;4993526;28;20036;-74
2021/12/02 00:49:30;;;;;;;4.15;2.85;;;;;;;5.10;82.55;97900.91;5002916;28;20049;-73
2021/12/02 00:51:58;;;;;;;8.57;3.45;;;;;;;5.13;82.46;97911.19;4999724;28;20040;-73
2021/12/02 00:54:25;;;;;;;7.88;4.45;;;;;;;5.11;82.44;97905.19;4996254;28;20100;-73
2021/12/02 00:56:52;;;;;;;11.52;3.30;;;;;;;5.12;83.12;97906.91;5006038;28;20038;-73
2021/12/02 00:59:19;;;;;;;6.18;4.22;;;;;;;5.14;83.25;97907.63;4997739;28;20120;-73
2021/12/02 01:01:47;;;;;;;8.93;4.50;;;;;;;5.14;82.79;97918.94;5002499;28;20561;-73
2021/12/02 01:04:15;;;;;;;8.88;4.78;;;;;;;5.12;82.85;97912.13;5009113;28;20048;-74
2021/12/02 01:06:41;;;;;;;6.78;5.10;;;;;;;5.11;83.08;97907.81;5009811;28;20022;-74
2021/12/02 01:09:09;;;;;;;10.10;5.65;;;;;;;5.10;83.50;97904.38;5008651;28;20034;-73
2021/12/02 01:11:34;;;;;;;9.57;6.15;;;;;;;5.08;82.83;97902.78;5009023;28;20042;-74
2021/12/02 01:14:01;;;;;;;21.17;9.48;;;;;;;5.08;82.99;97901.00;5009237;28;20045;-74
2021/12/02 01:16:26;;;;;;;10.10;5.38;;;;;;;5.10;83.27;97900.91;5007811;28;20374;-74
2021/12/02 01:18:52;;;;;;;7.80;5.00;;;;;;;5.07;82.62;97907.16;5012507;28;20126;-74
2021/12/02 01:21:21;;;;;;;6.63;4.70;;;;;;;5.10;83.35;97906.97;5013737;28;20065;-73
2021/12/02 01:23:54;;;;;;;13.52;4.88;;;;;;;5.08;83.01;97895.78;5012424;28;20034;-74
2021/12/02 01:26:19;;;;;;;8.10;5.35;;;;;;;5.07;82.48;97904.56;5000904;28;20579;-74
2021/12/02 01:28:46;;;;;;;9.02;5.28;;;;;;;5.07;83.02;97904.56;4996039;28;20034;-73
2021/12/02 01:31:13;;;;;;;7.82;5.82;;;;;;;5.06;83.24;97907.25;5003977;28;20046;-73
2021/12/02 01:33:40;;;;;;;7.78;4.70;;;;;;;5.05;83.15;97911.63;5017882;28;20065;-74
2021/12/02 01:36:06;;;;;;;20.77;7.72;;;;;;;4.99;83.72;97914.56;5023092;28;20030;-73
2021/12/02 01:38:33;;;;;;;9.85;4.88;;;;;;;4.99;83.40;97917.19;5019140;28;20065;-75
2021/12/02 01:41:01;;;;;;;9.40;4.90;;;;;;;4.92;83.15;97914.09;5014913;28;20030;-73
2021/12/02 01:43:45;;;;;;;8.43;4.32;;;;;;;4.94;83.44;97912.22;5007666;28;20037;-73
2021/12/02 01:46:12;;;;;;;14.20;4.38;;;;;;;4.96;83.52;97919.97;4994862;28;20038;-74
2021/12/02 01:48:41;;;;;;;12.23;5.47;;;;;;;4.98;83.38;97912.91;4994033;28;20442;-74
2021/12/02 01:51:10;;;;;;;7.93;5.15;;;;;;;4.99;82.85;97911.13;4992774;28;20037;-73
2021/12/02 01:53:39;;;;;;;7.72;5.22;;;;;;;5.01;82.75;97912.72;5001584;28;20061;-73
2021/12/02 01:56:10;;;;;;;7.57;4.50;;;;;;;5.05;83.14;97913.41;5012834;28;20057;-73
2021/12/02 01:58:46;;;;;;;8.73;4.55;;;;;;;5.08;82.93;97910.59;5012918;28;20049;-74
2021/12/02 02:01:27;;;;;;;5.47;3.88;;;;;;;5.04;82.97;97912.53;4991335;28;20077;-73
2021/12/02 02:03:54;;;;;;;9.02;4.70;;;;;;;5.02;82.86;97914.41;5017440;28;20057;-73
2021/12/02 02:06:27;;;;;;;11.23;5.55;;;;;;;5.03;82.96;97910.88;5013247;28;20038;-72
2021/12/02 02:08:55;;;;;;;11.65;4.68;;;;;;;5.02;83.76;97914.41;5014038;28;20141;-73
2021/12/02 02:11:24;;;;;;;6.57;4.07;;;;;;;5.01;83.65;97917.09;4990833;28;20137;-73
2021/12/02 02:13:49;;;;;;;7.47;5.15;;;;;;;5.02;83.74;97919.66;5012826;28;20052;-75
2021/12/02 02:16:15;;;;;;;10.30;5.15;;;;;;;5.02;84.24;97921.38;5014882;28;20030;-74
2021/12/02 02:18:41;;;;;;;9.18;5.90;;;;;;;4.99;83.71;97929.41;5013955;28;20386;-73
2021/12/02 02:21:16;;;;;;;7.40;5.65;;;;;;;4.87;83.52;97931.78;5013719;28;20040;-73
2021/12/02 02:23:55;;;;;;;13.65;6.60;;;;;;;4.87;83.73;97933.53;5013978;28;20045;-73
2021/12/02 02:26:27;;;;;;;9.43;5.40;;;;;;;4.87;83.59;97933.53;5012571;28;20041;-72
2021/12/02 02:28:54;;;;;;;8.65;4.95;;;;;;;4.86;83.63;97926.66;5012496;28;20045;-73
2021/12/02 02:31:19;;;;;;;7.53;5.00;;;;;;;4.87;83.66;97936.16;5011456;28;20164;-73
2021/12/02 02:33:49;;;;;;;14.35;4.55;;;;;;;4.85;82.88;97930.16;5011807;28;20109;-73
2021/12/02 02:36:15;;;;;;;5.95;3.47;;;;;;;4.84;82.91;97931.09;5009791;28;20038;-72
2021/12/02 02:38:40;;;;;;;5.22;3.80;;;;;;;4.82;82.29;97932.97;5012100;28;20120;-73
2021/12/02 02:41:08;;;;;;;7.97;3.22;;;;;;;4.78;82.77;97924.47;5012670;28;20049;-73
2021/12/02 02:43:34;;;;;;;7.53;4.72;;;;;;;4.79;83.64;97918.31;5014066;28;20036;-74
2021/12/02 02:46:00;;;;;;;8.80;5.13;;;;;;;4.80;83.48;97922.63;5013124;28;20114;-74
2021/12/02 02:48:26;;;;;;;15.20;7.35;;;;;;;4.78;84.29;97919.25;5012441;28;20049;-73
2021/12/02 02:50:52;;;;;;;10.05;6.75;;;;;;;4.78;84.54;97916.63;5011692;28;20034;-73
2021/12/02 02:53:22;;;;;;;11.48;7.32;;;;;;;4.76;84.75;97922.88;5007945;28;20095;-73
2021/12/02 03:01:26;;;;;;;;;;;;;;;4.74;83.80;97929.00;5012658;28;20088;-73
2021/12/02 03:06:50;;;;;;;14.40;7.88;;;;;;;4.73;84.40;97932.56;5012060;28;20036;-73
2021/12/02 03:12:02;;;;;;;8.25;5.07;;;;;;;4.77;84.25;97922.75;5011849;28;20049;-74
2021/12/02 03:17:11;;;;;;;7.13;4.22;;;;;;;4.74;81.87;97915.13;5010314;28;20034;-73
2021/12/02 03:19:41;;;;;;;8.20;4.63;;;;;;;4.73;82.40;97918.66;5009907;28;20068;-73
2021/12/02 03:22:07;;;;;;;9.32;5.50;;;;;;;4.71;81.91;97923.13;5010649;28;20107;-73
2021/12/02 03:24:32;;;;;;;8.10;4.95;;;;;;;4.71;81.66;97929.19;4996643;28;20469;-73
2021/12/02 03:26:58;;;;;;;11.93;4.43;;;;;;;4.68;82.31;97915.47;5006878;28;20387;-72
2021/12/02 03:29:24;;;;;;;6.03;3.42;;;;;;;4.64;81.54;97917.38;5009480;28;20040;-73
2021/12/02 03:31:49;;;;;;;8.38;2.47;;;;;;;4.62;81.80;97919.25;5010918;28;20048;-73
2021/12/02 03:34:15;;;;;;;8.95;2.75;;;;;;;4.62;81.54;97915.78;5010793;28;20758;-73
2021/12/02 03:36:41;;;;;;;5.60;2.83;;;;;;;4.58;81.25;97919.50;5009644;28;20041;-74
2021/12/02 03:39:10;;;;;;;5.40;2.30;;;;;;;4.54;80.52;97926.66;5012551;28;20026;-74
2021/12/02 03:41:37;;;;;;;5.97;2.90;;;;;;;4.54;81.01;97916.22;5009969;28;20034;-73
2021/12/02 03:44:03;;;;;;;3.70;2.08;;;;;;;4.52;81.02;97925.88;4991447;28;20054;-73
2021/12/02 03:46:29;;;;;;;3.20;2.03;;;;;;;4.48;80.76;97925.22;4991392;28;20118;-74
2021/12/02 03:48:55;;;;;;;6.25;2.80;;;;;;;4.47;81.50;97922.69;4989989;28;20027;-73
2021/12/02 03:51:22;;;;;;;7.60;2.83;;;;;;;4.44;81.76;97923.69;4990435;28;20049;-74
2021/12/02 03:53:48;;;;;;;6.95;2.95;;;;;;;4.45;81.04;97922.75;4989896;28;20026;-73
2021/12/02 03:56:13;;;;;;;4.80;2.15;;;;;;;4.48;81.64;97929.63;4991391;28;20034;-74
2021/12/02 03:58:42;;;;;;;4.95;2.47;;;;;;;4.46;81.25;97927.06;4990200;28;20042;-74
2021/12/02 04:01:09;;;;;;;4.45;2.20;;;;;;;4.46;81.39;97927.06;4992555;28;20382;-73
2021/12/02 04:03:35;;;;;;;5.05;2.58;;;;;;;4.43;81.27;97924.66;5010270;28;20089;-75
2021/12/02 04:06:00;;;;;;;6.82;2.72;;;;;;;4.42;81.81;97920.31;5008361;28;20116;-73
2021/12/02 04:08:45;;;;;;;4.35;2.80;;;;;;;4.43;82.06;97932.47;5009587;28;20059;-73
2021/12/02 04:11:21;;;;;;;12.85;4.50;;;;;;;4.45;81.85;97927.97;5009590;28;20056;-74
2021/12/02 04:14:05;;;;;;;6.20;2.80;;;;;;;4.45;82.45;97927.16;5009712;28;20077;-75
2021/12/02 04:16:34;;;;;;;4.10;2.50;;;;;;;4.47;82.12;97930.53;5009713;28;20038;-74
2021/12/02 04:19:00;;;;;;;10.38;3.78;;;;;;;4.43;82.19;97932.47;5009230;28;20044;-73
2021/12/02 04:21:26;;;;;;;6.97;3.28;;;;;;;4.40;82.04;97937.81;5009351;28;20044;-73
2021/12/02 04:23:51;;;;;;;5.45;3.10;;;;;;;4.44;82.54;97938.53;5009825;28;20042;-72
2021/12/02 04:26:16;;;;;;;11.65;3.72;;;;;;;4.46;82.13;97928.84;5009668;28;20417;-74
2021/12/02 04:28:42;;;;;;;6.65;3.60;;;;;;;4.46;82.35;97939.28;5008968;28;20030;-73
2021/12/02 04:31:07;;;;;;;9.35;3.72;;;;;;;4.45;82.51;97942.81;5009148;28;20065;-73
2021/12/02 04:33:33;;;;;;;13.02;5.82;;;;;;;4.41;82.51;97929.09;5009300;28;20046;-73
2021/12/02 04:36:00;;;;;;;8.90;4.45;;;;;;;4.41;82.01;97936.91;5009247;28;20120;-73
2021/12/02 04:38:27;;;;;;;8.35;4.70;;;;;;;4.42;82.19;97938.59;5008629;28;20064;-74
2021/12/02 04:40:52;;;;;;;12.07;4.65;;;;;;;4.45;82.54;97946.25;5008488;28;20041;-73
2021/12/02 04:43:17;;;;;;;12.10;6.20;;;;;;;4.44;81.99;97939.34;5009370;28;20042;-73
2021/12/02 04:45:43;;;;;;;10.80;5.78;;;;;;;4.44;82.28;97944.56;5007722;28;20448;-73
2021/12/02 04:48:08;;;;;;;19.73;6.68;;;;;;;4.38;81.75;97939.72;5008950;28;20057;-72
2021/12/02 04:50:33;;;;;;;14.93;6.10;;;;;;;4.36;82.11;97935.50;5008519;28;20065;-73
2021/12/02 04:52:59;;;;;;;11.70;5.05;;;;;;;4.30;82.10;97934.88;5008780;28;20044;-74
2021/12/02 04:55:24;;;;;;;11.05;5.95;;;;;;;4.27;81.93;97942.03;5009419;28;20165;-73
2021/12/02 04:57:50;;;;;;;10.20;5.00;;;;;;;4.24;82.43;97945.66;5008171;28;20048;-74
2021/12/02 05:00:16;;;;;;;11.05;5.18;;;;;;;4.16;81.10;97941.75;5008480;28;20052;-74
2021/12/02 05:02:42;;;;;;;7.05;4.43;;;;;;;4.14;80.96;97941.00;5008731;28;20041;-73
2021/12/02 05:05:08;;;;;;;6.35;3.88;;;;;;;4.15;81.49;97943.53;5009192;28;20379;-73
2021/12/02 05:07:34;;;;;;;10.57;4.25;;;;;;;4.16;81.39;97945.22;5009297;28;20110;-73
2021/12/02 05:10:00;;;;;;;9.25;5.15;;;;;;;4.17;81.25;97948.66;5007216;28;20026;-73
2021/12/02 05:12:26;;;;;;;9.77;4.15;;;;;;;4.17;81.04;97957.31;5009363;28;20053;-73
2021/12/02 05:14:51;;;;;;;6.32;3.20;;;;;;;4.17;80.57;97956.50;5010691;28;20121;-74
2021/12/02 05:17:17;;;;;;;6.22;3.55;;;;;;;4.16;80.65;97957.41;5007733;28;20465;-73
2021/12/02 05:19:43;;;;;;;6.88;3.15;;;;;;;4.17;80.78;97946.06;5008650;28;20052;-74
2021/12/02 05:22:09;;;;;;;4.25;2.80;;;;;;;4.16;80.88;97955.66;5008920;28;20038;-73
2021/12/02 05:24:34;;;;;;;8.57;3.00;;;;;;;4.16;79.95;97957.41;5005322;28;20034;-73
2021/12/02 05:27:00;;;;;;;9.23;3.50;;;;;;;4.15;80.06;97953.94;5011434;28;20508;-73
2021/12/02 05:29:25;;;;;;;10.35;3.28;;;;;;;4.15;80.76;97959.16;5008445;28;20505;-75
2021/12/02 05:31:51;;;;;;;10.57;2.90;;;;;;;4.14;79.70;97943.63;5009179;28;20049;-74
2021/12/02 05:34:16;;;;;;;9.00;3.20;;;;;;;4.15;80.66;97956.56;5008945;28;20125;-73
2021/12/02 05:36:42;;;;;;;7.65;3.13;;;;;;;4.16;80.17;97953.03;5009016;28;20110;-74
2021/12/02 05:39:07;;;;;;;6.38;3.85;;;;;;;4.15;80.47;97953.13;5008585;28;20037;-73
2021/12/02 05:41:33;;;;;;;9.43;4.28;;;;;;;4.13;80.37;97949.75;5009188;28;20054;-73
2021/12/02 05:44:00;;;;;;;8.02;3.72;;;;;;;4.13;80.75;97942.75;5008265;28;20402;-74
2021/12/02 05:46:25;;;;;;;12.85;4.50;;;;;;;4.13;80.74;97945.34;5007335;28;20038;-73
2021/12/02 05:48:51;;;;;;;11.25;5.53;;;;;;;4.12;81.12;97946.28;5008941;28;20048;-73
2021/12/02 05:51:16;;;;;;;9.45;4.72;;;;;;;4.15;80.69;97946.13;5013485;28;20112;-73
2021/12/02 05:53:42;;;;;;;12.77;5.47;;;;;;;4.16;81.00;97941.75;5015343;28;20053;-74
2021/12/02 05:56:07;;;;;;;10.77;5.32;;;;;;;4.16;80.82;97944.34;5010254;28;20041;-73
2021/12/02 05:58:32;;;;;;;9.57;4.72;;;;;;;4.17;81.27;97946.06;5008633;28;20065;-73
2021/12/02 06:00:58;;;;;;;11.40;4.88;;;;;;;4.18;81.03;97940.75;5008278;28;20038;-74
2021/12/02 06:03:23;;;;;;;10.10;4.88;;;;;;;4.14;80.86;97947.06;5009549;28;20391;-72
2021/12/02 06:05:49;;;;;;;13.02;6.70;;;;;;;4.09;80.37;97944.69;5012714;28;20107;-73
2021/12/02 06:08:15;;;;;;;8.05;4.50;;;;;;;4.06;80.55;97952.69;5011134;28;20046;-72
2021/12/02 06:10:41;;;;;;;10.90;5.30;;;;;;;4.05;81.03;97958.81;5011056;28;20433;-74
2021/12/02 06:13:07;;;;;;;12.00;6.65;;;;;;;4.00;81.40;97947.78;5012911;28;20042;-72
2021/12/02 06:15:32;;;;;;;8.90;5.60;;;;;;;4.01;81.73;97962.50;5014060;28;20045;-72
2021/12/02 06:17:57;;;;;;;10.25;5.57;;;;;;;4.04;81.47;97972.78;5014723;28;20033;-72
2021/12/02 06:20:23;;;;;;;11.48;5.68;;;;;;;4.05;81.94;97976.22;5015562;28;20045;-74
2021/12/02 06:22:49;;;;;;;11.30;5.72;;;;;;;4.01;80.65;97983.38;5021833;28;20038;-75
2021/12/02 06:27:46;;;;;;;12.52;5.50;;;;;;;4.04;80.57;97988.41;5015824;28;20483;-73
2021/12/02 06:30:13;;;;;;;6.32;4.30;;;;;;;4.07;80.36;97987.41;5012349;28;20387;-73
2021/12/02 06:32:39;;;;;;;13.63;5.25;;;;;;;4.11;80.20;97982.88;5009269;28;20115;-74
2021/12/02 06:35:05;;;;;;;8.30;5.05;;;;;;;4.07;80.03;97983.03;5011900;28;20092;-74
2021/12/02 06:37:30;;;;;;;12.15;4.88;;;;;;;4.09;80.05;97996.84;5012226;28;20038;-74
2021/12/02 06:39:56;;;;;;;10.00;5.85;;;;;;;4.11;80.19;97996.78;5012078;28;20500;-74
2021/12/02 06:42:21;;;;;;;9.52;4.63;;;;;;;4.12;80.37;98001.06;5011394;28;20132;-72
2021/12/02 06:44:46;;;;;;;17.33;5.88;;;;;;;4.06;79.96;97993.53;5012634;28;20452;-73
2021/12/02 06:47:12;;;;;;;16.27;8.93;;;;;;;4.07;79.71;97998.69;5010569;28;20498;-73
2021/12/02 06:49:39;;;;;;;7.18;5.00;;;;;;;4.06;80.02;97999.63;5010524;28;20036;-74
2021/12/02 06:52:10;;;;;;;9.13;5.38;;;;;;;4.05;80.48;98000.53;5011360;28;20070;-74
2021/12/02 06:54:36;;;;;;;8.80;4.00;;;;;;;4.03;80.15;98007.56;5011365;28;20082;-74
2021/12/02 06:57:02;;;;;;;10.45;4.88;;;;;;;4.05;80.03;97999.69;5010586;28;20045;-73
2021/12/02 06:59:27;;;;;;;5.78;4.55;;;;;;;4.05;80.31;98000.53;5010750;28;20046;-73
2021/12/02 07:01:53;;;;;;;9.02;3.63;;;;;;;3.98;80.17;98001.75;5011686;28;20109;-72
2021/12/02 07:04:18;;;;;;;7.28;4.28;;;;;;;3.90;80.17;98003.91;5011098;28;20062;-73
2021/12/02 07:06:44;;;;;;;4.97;2.55;;;;;;;3.76;79.47;98015.03;5012331;28;20042;-73
2021/12/02 07:09:10;;;;;;;6.88;2.65;;;;;;;3.62;80.42;98027.94;5010920;28;20054;-73
2021/12/02 07:11:36;;;;;;;3.35;2.53;;;;;;;3.53;80.42;98034.41;5012130;28;20088;-73
2021/12/02 07:14:05;;;;;;;4.38;2.78;;;;;;;3.50;80.84;98037.19;5011445;28;20037;-74
2021/12/02 07:16:35;;;;;;;2.92;2.13;;;;;;;3.38;80.81;98032.56;5007059;28;20053;-74
2021/12/02 07:19:05;;;;;;;3.72;2.20;;;;;;;3.30;80.83;98037.28;4991122;28;20058;-73
2021/12/02 07:21:31;;;;;;;6.82;3.65;;;;;;;3.23;81.43;98037.59;4991504;28;20030;-73
2021/12/02 07:23:57;;;;;;;4.40;2.83;;;;;;;3.22;82.03;98043.72;5001911;28;20042;-73
2021/12/02 07:26:22;;;;;;;8.27;3.33;;;;;;;3.21;81.85;98044.63;5010420;28;20034;-73
2021/12/02 07:28:48;;;;;;;3.45;2.55;;;;;;;3.22;82.17;98045.47;5010714;28;20038;-73
2021/12/02 07:31:14;;;;;;;10.55;4.57;;;;;;;3.26;82.32;98041.81;5010880;28;20029;-73
2021/12/02 07:33:48;;;;;;;3.90;2.78;;;;;;;3.27;82.30;98040.03;5010365;28;20090;-72
2021/12/02 07:36:14;;;;;;;5.60;2.45;;;;;;;3.27;82.07;98045.25;5010911;28;20121;-74
2021/12/02 07:38:40;;;;;;;6.75;3.67;;;;;;;3.25;82.39;98047.94;5010418;28;20037;-73
2021/12/02 07:41:05;;;;;;;7.00;3.38;;;;;;;3.27;82.57;98047.84;5010946;28;20036;-72
2021/12/02 07:43:32;;;;;;;3.67;2.83;;;;;;;3.26;81.81;98054.81;5008822;28;20044;-73
2021/12/02 07:45:59;;;;;;;6.50;3.58;;;;;;;3.29;82.92;98059.03;5010266;28;20074;-73
2021/12/02 07:48:25;;;;;;;6.93;4.18;;;;;;;3.31;82.20;98060.66;5011553;28;20037;-74
2021/12/02 07:50:54;;;;;;;5.75;4.28;;;;;;;3.33;82.58;98064.03;5008835;28;20037;-73
2021/12/02 07:53:19;;;;;;;5.45;3.65;;;;;;;3.34;82.54;98067.47;5010777;28;20034;-74
2021/12/02 07:55:46;;;;;;;7.53;3.45;;;;;;;3.23;82.17;98073.22;5010106;28;20041;-74
2021/12/02 07:58:11;;;;;;;11.52;4.03;;;;;;;3.17;82.46;98083.91;5010534;28;20502;-74
2021/12/02 08:00:37;;;;;;;4.38;3.08;;;;;;;3.08;82.83;98089.56;5009337;28;20030;-73
2021/12/02 08:03:10;;;;;;;4.72;3.72;;;;;;;3.09;82.43;98084.25;5010079;28;20440;-74
2021/12/02 08:05:36;;;;;;;4.78;4.25;;;;;;;3.10;82.82;98091.16;5010570;28;20041;-73
2021/12/02 08:08:01;;;;;;;4.68;3.95;;;;;;;3.12;82.67;98097.13;5010545;28;20397;-74
2021/12/02 08:10:28;;;;;;;5.75;3.92;;;;;;;3.13;83.04;98100.59;5010277;28;20040;-74
2021/12/02 08:12:54;;;;;;;6.38;3.92;;;;;;;3.10;83.15;98104.19;5010162;28;20064;-74
2021/12/02 08:15:26;;;;;;;6.45;3.70;;;;;;;3.18;82.53;98112.47;5010217;28;20037;-74
2021/12/02 08:17:53;;;;;;;8.57;5.00;;;;;;;3.19;83.09;98108.94;5009793;28;20099;-74
2021/12/02 08:20:21;;;;;;;5.68;4.53;;;;;;;3.25;82.88;98106.97;5009379;28;20026;-74
2021/12/02 08:22:46;;;;;;;10.88;5.53;;;;;;;3.20;82.19;98102.84;5008971;28;20367;-74
2021/12/02 08:25:12;;;;;;;9.65;5.72;;;;;;;3.20;82.83;98107.22;5009699;28;20034;-73
2021/12/02 08:27:38;;;;;;;8.13;5.65;;;;;;;3.23;83.04;98117.47;5009879;28;20038;-74
2021/12/02 08:30:06;;;;;;;11.85;8.68;;;;;;;3.25;83.54;98117.38;5015669;28;20553;-74
2021/12/02 08:32:31;;;;;;;11.18;6.40;;;;;;;3.25;82.95;98117.38;5007447;28;20129;-74
2021/12/02 08:34:59;;;;;;;9.25;7.25;;;;;;;3.28;82.70;98118.09;4991660;28;20042;-74
2021/12/02 08:37:28;;;;;;;11.90;7.88;;;;;;;3.31;83.12;98128.38;5009803;28;20096;-73
2021/12/02 08:39:55;;;;;;;13.75;7.68;;;;;;;3.35;82.30;98140.34;5002431;28;20030;-73
2021/12/02 08:42:24;;;;;;;10.82;7.15;;;;;;;3.36;82.59;98143.78;5000804;28;20112;-74
2021/12/02 08:44:50;;;;;;;10.98;7.93;;;;;;;3.35;81.88;98140.34;5012714;28;20117;-72
2021/12/02 08:47:16;;;;;;;13.20;8.85;;;;;;;3.38;82.09;98145.41;5013113;28;20483;-74
2021/12/02 08:49:41;;;;;;;16.88;8.52;;;;;;;3.38;81.95;98149.78;5012039;28;20595;-75
2021/12/02 08:52:07;;;;;;;13.02;7.55;;;;;;;3.41;81.64;98140.03;5002050;28;20033;-74
2021/12/02 08:54:32;;;;;;;11.15;7.95;;;;;;;3.54;81.06;98150.72;4999920;28;20110;-74
2021/12/02 08:56:58;;;;;;;10.30;5.97;;;;;;;3.57;80.39;98155.81;4998223;28;20091;-74
2021/12/02 08:59:23;;;;;;;11.38;7.65;;;;;;;3.58;80.58;98157.50;5000514;28;20468;-75
2021/12/02 09:01:48;;;;;;;13.32;7.93;;;;;;;3.55;81.13;98169.84;4999030;28;20085;-73
2021/12/02 09:04:14;;;;;;;6.95;5.18;;;;;;;3.41;81.03;98173.91;4997953;28;20038;-73
2021/12/02 09:06:39;;;;;;;9.98;6.47;;;;;;;3.36;81.18;98175.03;4993246;28;20509;-71
2021/12/02 09:09:05;;;;;;;9.25;5.18;;;;;;;3.23;80.72;98182.56;4998177;28;20066;-73
2021/12/02 09:11:33;;;;;;;12.55;4.78;;;;;;;3.08;81.18;98191.91;5002188;28;20044;-71
2021/12/02 09:14:01;;;;;;;9.93;4.60;;;;;;;2.93;81.54;98197.78;5001742;28;20038;-69
2021/12/02 09:16:29;;;;;;;12.10;4.13;;;;;;;2.87;81.93;98208.47;5001955;28;20066;-69
2021/12/02 09:18:55;;;;;;;4.90;3.55;;;;;;;2.73;80.41;98202.13;4996764;28;20639;-69
2021/12/02 09:21:22;;;;;;;7.25;3.95;;;;;;;2.54;80.64;98202.06;5000193;28;20037;-69
2021/12/02 09:23:48;;;;;;;5.05;3.05;;;;;;;2.44;81.49;98198.16;4998216;28;20402;-69
2021/12/02 09:26:13;;;;;;;7.22;5.20;;;;;;;2.41;81.57;98198.25;5008701;28;20556;-67
2021/12/02 09:28:39;;;;;;;6.47;3.97;;;;;;;2.42;81.92;98205.16;5008097;28;20046;-67
2021/12/02 09:31:04;;;;;;;4.18;3.20;;;;;;;2.45;81.93;98204.19;5009647;28;20044;-67
2021/12/02 09:33:30;;;;;;;3.75;2.60;;;;;;;2.44;81.91;98203.34;5010460;28;20041;-66
2021/12/02 09:35:55;;;;;;;4.20;2.88;;;;;;;2.48;82.27;98204.06;5010472;28;20038;-66
2021/12/02 09:38:20;;;;;;;12.07;3.60;;;;;;;2.49;82.04;98211.81;5011341;28;20520;-68
2021/12/02 09:40:46;;;;;;;3.47;2.08;;;;;;;2.50;81.79;98215.25;5013447;28;20092;-68
2021/12/02 09:43:12;;;;;;;4.00;2.65;;;;;;;2.47;81.48;98215.38;5004904;28;20499;-68
2021/12/02 09:45:39;;;;;;;4.88;2.55;;;;;;;2.40;81.57;98230.38;4997064;28;20113;-67
2021/12/02 09:48:05;;;;;;;3.90;2.50;;;;;;;2.33;81.72;98232.38;4991793;28;20111;-68
2021/12/02 09:50:38;;;;;;;4.50;2.17;;;;;;;2.25;81.35;98241.41;5000278;28;20108;-68
2021/12/02 09:53:09;;;;;;;4.63;2.53;;;;;;;2.12;81.10;98233.28;5007187;28;20099;-67
2021/12/02 09:58:07;;;;;;;4.28;2.03;;;;;;;1.90;82.50;98234.13;5007583;28;20038;-67
2021/12/02 10:00:39;;;;;;;3.75;2.08;;;;;;;1.84;82.57;98242.13;5008358;28;20034;-67
2021/12/02 10:03:19;;;;;;;3.15;2.40;;;;;;;1.83;82.96;98237.84;5009407;28;20046;-68
2021/12/02 10:05:55;;;;;;;5.10;2.33;;;;;;;1.83;83.00;98244.81;5008784;28;20034;-75
2021/12/02 10:08:24;;;;;;;4.35;2.83;;;;;;;1.85;83.12;98251.63;5009263;28;20099;-74
2021/12/02 10:11:00;;;;;;;3.80;2.40;;;;;;;1.86;83.67;98248.13;5008803;28;20038;-73
2021/12/02 10:13:32;;;;;;;44.60;31.02;;;;;;;1.94;83.20;98237.44;5009286;28;20046;-74
2021/12/02 10:16:25;;;;;;;5.95;4.05;;;;;;;2.01;82.98;98238.88;5011008;28;20030;-74
2021/12/02 10:19:09;;;;;;;3.00;2.40;;;;;;;2.19;82.65;98247.72;5009693;28;20041;-72
2021/12/02 10:21:40;;;;;;;4.38;2.35;;;;;;;2.21;82.31;98242.44;5008821;28;20048;-74
2021/12/02 10:24:12;;;;;;;4.82;2.97;;;;;;;2.18;82.27;98245.16;5006247;28;20132;-75
2021/12/02 10:26:53;;;;;;;5.45;3.38;;;;;;;2.19;82.98;98245.13;5005606;28;20041;-72
2021/12/02 10:29:24;;;;;;;4.82;3.50;;;;;;;2.48;82.06;98250.88;5010357;28;20045;-73
2021/12/02 10:32:04;;;;;;;6.90;3.60;;;;;;;2.98;80.88;98237.50;5010839;28;20516;-73
2021/12/02 10:34:29;;;;;;;7.05;4.55;;;;;;;3.32;80.37;98231.63;5007200;28;20130;-72
2021/12/02 10:36:58;;;;;;;8.45;4.75;;;;;;;3.47;79.82;98243.13;5007089;28;20458;-75
2021/12/02 10:39:25;;;;;;;11.38;4.40;;;;;;;3.53;78.70;98231.59;5004594;28;20092;-74
2021/12/02 10:42:00;;;;;;;7.35;4.80;;;;;;;3.63;78.40;98238.91;5007315;28;20490;-72
2021/12/02 10:44:33;;;;;;;4.95;4.00;;;;;;;3.77;78.25;98237.44;4987377;28;20092;-75
2021/12/02 10:47:07;;;;;;;7.93;4.72;;;;;;;3.89;77.76;98234.25;4986649;28;20069;-73
2021/12/02 10:49:46;;;;;;;7.60;4.40;;;;;;;3.92;77.60;98225.44;4985495;28;20046;-74
2021/12/02 10:52:16;;;;;;;7.05;4.63;;;;;;;3.91;77.40;98221.13;4986969;28;20262;-72
2021/12/02 10:54:47;;;;;;;8.40;4.60;;;;;;;3.75;77.47;98221.03;4984826;28;20046;-73
2021/12/02 10:57:17;;;;;;;9.13;4.18;;;;;;;3.70;77.50;98223.84;4986097;28;20031;-74
2021/12/02 10:59:54;;;;;;;7.57;3.83;;;;;;;3.64;76.86;98224.09;4985283;28;20109;-75
2021/12/02 11:02:34;;;;;;;7.78;3.83;;;;;;;3.65;76.95;98225.81;4986019;28;20143;-74
2021/12/02 11:05:03;;;;;;;7.47;3.10;;;;;;;3.61;77.49;98226.84;4986790;28;20121;-73
2021/12/02 11:07:28;;;;;;;5.40;2.85;;;;;;;3.59;77.70;98224.34;4984458;28;20421;-74
2021/12/02 11:09:55;;;;;;;5.35;3.05;;;;;;;3.55;77.91;98233.22;4993202;28;20034;-74
2021/12/02 11:12:30;;;;;;;5.82;2.55;;;;;;;3.53;77.60;98234.19;4985259;28;20077;-74
2021/12/02 11:14:59;;;;;;;6.72;3.35;;;;;;;3.55;77.88;98229.75;4975425;28;20578;-73
2021/12/02 11:17:29;;;;;;;7.22;2.85;;;;;;;3.53;77.23;98242.84;4988734;28;20043;-75
2021/12/02 11:19:56;;;;;;;5.40;2.65;;;;;;;3.53;77.12;98248.06;4987177;28;20045;-74
2021/12/02 11:22:23;;;;;;;4.82;2.35;;;;;;;3.48;77.32;98237.00;4986613;28;20042;-74
2021/12/02 11:24:49;;;;;;;11.30;3.25;;;;;;;3.46;77.84;98236.22;4988685;28;20041;-74
2021/12/02 11:27:26;;;;;;;5.30;2.90;;;;;;;3.41;77.13;98241.63;4986520;28;20045;-74
2021/12/02 11:30:00;;;;;;;6.18;2.40;;;;;;;3.40;77.40;98249.53;4986783;28;20027;-74
2021/12/02 11:32:29;;;;;;;10.15;4.50;;;;;;;3.44;77.63;98256.28;4990275;28;20802;-74
2021/12/02 11:35:14;;;;;;;12.32;6.72;;;;;;;3.44;77.98;98245.84;4989291;28;20045;-74
2021/12/02 11:37:49;;;;;;;8.18;4.00;;;;;;;3.41;77.24;98251.22;4990257;28;20120;-74
2021/12/02 11:40:16;;;;;;;6.30;2.60;;;;;;;3.31;77.34;98249.94;4988111;28;20125;-74
2021/12/02 11:42:42;;;;;;;4.88;2.58;;;;;;;3.21;77.92;98254.72;4999191;28;20424;-75
2021/12/02 11:45:10;;;;;;;5.85;2.85;;;;;;;3.21;78.73;98255.53;5018408;28;20057;-75
2021/12/02 11:47:36;;;;;;;7.60;3.80;;;;;;;3.23;78.65;98261.53;5001833;28;20866;-74
2021/12/02 11:50:06;;;;;;;6.70;2.97;;;;;;;3.26;78.37;98268.38;5007028;28;20412;-73
2021/12/02 11:52:34;;;;;;;8.40;2.58;;;;;;;3.27;78.35;98266.59;5006336;28;20065;-74
2021/12/02 11:55:01;;;;;;;5.38;2.92;;;;;;;3.29;78.59;98265.63;5006443;28;20103;-75
2021/12/02 11:57:27;;;;;;;5.90;3.28;;;;;;;3.31;78.70;98266.41;5008868;28;20116;-76
2021/12/02 11:59:59;;;;;;;4.32;2.20;;;;;;;3.32;78.56;98269.84;5007204;28;21210;-75
2021/12/02 12:02:24;;;;;;;5.85;3.60;;;;;;;3.29;78.52;98278.66;5003258;28;20037;-75